KQA8713 HKMO-HKJK
Flight info
| Callsign | KQA8713 |
|---|---|
| Flight time | N/A |
| Altitude | 24000 |
| Route | NERAG1A UTIKU Q315 UTEPI UTEPI1A |
| Aircraft | E190/M-SDE3GILORVW/S |
Departure
| Time | 2026-04-26 10:42 |
|---|---|
| Airport | Moi International Airport (HKMO) |
Arrival
| Time | N/A |
|---|---|
| Airport | Jomo Kenyatta International Airport (HKJK) |
| Time | Latitude | Longitude | Altitude | Speed | Heading |
|---|---|---|---|---|---|
| 2026-04-26 09:54 | -4.03147 | 39.60220 | 229 ft | 0 kts | 120° |
| 2026-04-26 10:29 | -4.03147 | 39.60219 | 199 ft | 1 kts | 120° |
| 2026-04-26 10:29 | -4.03142 | 39.60208 | 211 ft | 3 kts | 102° |
| 2026-04-26 10:29 | -4.03136 | 39.60190 | 209 ft | 3 kts | 106° |
| 2026-04-26 10:30 | -4.03132 | 39.60170 | 204 ft | 3 kts | 92° |
| 2026-04-26 10:30 | -4.03133 | 39.60151 | 201 ft | 3 kts | 64° |
| 2026-04-26 10:30 | -4.03143 | 39.60138 | 209 ft | 2 kts | 29° |
| 2026-04-26 10:30 | -4.03151 | 39.60134 | 207 ft | 3 kts | 29° |
| 2026-04-26 10:34 | -4.03147 | 39.60136 | 210 ft | 2 kts | 29° |
| 2026-04-26 10:34 | -4.03134 | 39.60142 | 207 ft | 3 kts | 24° |
| 2026-04-26 10:34 | -4.03114 | 39.60146 | 211 ft | 2 kts | 0° |
| 2026-04-26 10:35 | -4.03088 | 39.60144 | 205 ft | 3 kts | 345° |
| 2026-04-26 10:35 | -4.03067 | 39.60128 | 208 ft | 5 kts | 312° |
| 2026-04-26 10:35 | -4.03044 | 39.60091 | 201 ft | 9 kts | 301° |
| 2026-04-26 10:35 | -4.03005 | 39.60025 | 201 ft | 14 kts | 301° |
| 2026-04-26 10:36 | -4.02942 | 39.59945 | 210 ft | 13 kts | 339° |
| 2026-04-26 10:36 | -4.02867 | 39.59968 | 209 ft | 12 kts | 30° |
| 2026-04-26 10:36 | -4.02780 | 39.60018 | 207 ft | 17 kts | 30° |
| 2026-04-26 10:36 | -4.02665 | 39.60082 | 208 ft | 21 kts | 28° |
| 2026-04-26 10:37 | -4.02524 | 39.60159 | 210 ft | 25 kts | 29° |
| 2026-04-26 10:37 | -4.02360 | 39.60252 | 207 ft | 29 kts | 29° |
| 2026-04-26 10:37 | -4.02173 | 39.60357 | 205 ft | 32 kts | 28° |
| 2026-04-26 10:37 | -4.01987 | 39.60418 | 209 ft | 14 kts | 313° |
| 2026-04-26 10:38 | -4.01978 | 39.60379 | 205 ft | 5 kts | 269° |
| 2026-04-26 10:38 | -4.01978 | 39.60376 | 205 ft | 0 kts | 269° |
| 2026-04-26 10:39 | -4.01978 | 39.60373 | 205 ft | 2 kts | 269° |
| 2026-04-26 10:39 | -4.01977 | 39.60338 | 205 ft | 8 kts | 271° |
| 2026-04-26 10:39 | -4.01981 | 39.60272 | 205 ft | 8 kts | 246° |
| 2026-04-26 10:40 | -4.02011 | 39.60247 | 205 ft | 0 kts | 210° |
| 2026-04-26 10:41 | -4.02013 | 39.60246 | 205 ft | 2 kts | 210° |
| 2026-04-26 10:41 | -4.02221 | 39.60131 | 207 ft | 72 kts | 208° |
| 2026-04-26 10:41 | -4.02860 | 39.59772 | 205 ft | 137 kts | 209° |
| 2026-04-26 10:41 | -4.03825 | 39.59277 | 580 ft | 166 kts | 206° |
| 2026-04-26 10:42 | -4.04965 | 39.58645 | 843 ft | 219 kts | 207° |
| 2026-04-26 10:42 | -4.06421 | 39.57827 | 1480 ft | 241 kts | 209° |
| 2026-04-26 10:42 | -4.07852 | 39.57016 | 2889 ft | 235 kts | 211° |
| 2026-04-26 10:42 | -4.08919 | 39.55786 | 4101 ft | 240 kts | 244° |
| 2026-04-26 10:43 | -4.09129 | 39.54091 | 5130 ft | 254 kts | 277° |
| 2026-04-26 10:43 | -4.08471 | 39.52470 | 6099 ft | 262 kts | 298° |
| 2026-04-26 10:43 | -4.07513 | 39.50879 | 7011 ft | 268 kts | 298° |
| 2026-04-26 10:43 | -4.06580 | 39.49246 | 7915 ft | 272 kts | 298° |
| 2026-04-26 10:44 | -4.05638 | 39.47576 | 8808 ft | 277 kts | 298° |
| 2026-04-26 10:44 | -4.04680 | 39.45877 | 9641 ft | 283 kts | 299° |
| 2026-04-26 10:44 | -4.03710 | 39.44164 | 10471 ft | 284 kts | 300° |
| 2026-04-26 10:44 | -4.02729 | 39.42436 | 11247 ft | 287 kts | 300° |
| 2026-04-26 10:45 | -4.01739 | 39.40688 | 12073 ft | 288 kts | 300° |
| 2026-04-26 10:45 | -4.00672 | 39.39021 | 12882 ft | 289 kts | 306° |
| 2026-04-26 10:45 | -3.99473 | 39.37422 | 13690 ft | 290 kts | 309° |
| 2026-04-26 10:45 | -3.98119 | 39.35898 | 14390 ft | 293 kts | 314° |
| 2026-04-26 10:46 | -3.96709 | 39.34416 | 15069 ft | 298 kts | 315° |
| 2026-04-26 10:46 | -3.95245 | 39.32902 | 15763 ft | 302 kts | 316° |
| 2026-04-26 10:46 | -3.93740 | 39.31353 | 16017 ft | 323 kts | 316° |
| 2026-04-26 10:46 | -3.92121 | 39.29687 | 16273 ft | 342 kts | 316° |
| 2026-04-26 10:47 | -3.90422 | 39.27939 | 16573 ft | 357 kts | 316° |
| 2026-04-26 10:47 | -3.88685 | 39.26145 | 17171 ft | 362 kts | 316° |
| 2026-04-26 10:47 | -3.86936 | 39.24342 | 17762 ft | 367 kts | 316° |
| 2026-04-26 10:47 | -3.85132 | 39.22483 | 18348 ft | 371 kts | 316° |
| 2026-04-26 10:48 | -3.83363 | 39.20659 | 18829 ft | 374 kts | 316° |
| 2026-04-26 10:48 | -3.81537 | 39.18777 | 19340 ft | 377 kts | 316° |
| 2026-04-26 10:48 | -3.79682 | 39.16866 | 19861 ft | 380 kts | 316° |
| 2026-04-26 10:48 | -3.77846 | 39.14972 | 20365 ft | 383 kts | 316° |
| 2026-04-26 10:49 | -3.75972 | 39.13041 | 20853 ft | 386 kts | 316° |
| 2026-04-26 10:49 | -3.74089 | 39.11101 | 21306 ft | 390 kts | 316° |
| 2026-04-26 10:49 | -3.72200 | 39.09154 | 21776 ft | 393 kts | 316° |
| 2026-04-26 10:49 | -3.70287 | 39.07183 | 22223 ft | 396 kts | 316° |
| 2026-04-26 10:50 | -3.68389 | 39.05226 | 22646 ft | 399 kts | 316° |
| 2026-04-26 10:50 | -3.67081 | 39.03878 | 22934 ft | 401 kts | 316° |
| 2026-04-26 10:50 | -3.64495 | 39.01216 | 23470 ft | 404 kts | 316° |
| 2026-04-26 10:50 | -3.62534 | 38.99194 | 23794 ft | 407 kts | 316° |
| 2026-04-26 10:51 | -3.60615 | 38.97218 | 23882 ft | 386 kts | 316° |
| 2026-04-26 10:51 | -3.56808 | 38.93296 | 23969 ft | 404 kts | 316° |
| 2026-04-26 10:51 | -3.54856 | 38.91285 | 23982 ft | 407 kts | 316° |
| 2026-04-26 10:52 | -3.52894 | 38.89265 | 23973 ft | 407 kts | 316° |
| 2026-04-26 10:52 | -3.50923 | 38.87245 | 23963 ft | 406 kts | 316° |
| 2026-04-26 10:52 | -3.48954 | 38.85207 | 23966 ft | 406 kts | 316° |
| 2026-04-26 10:52 | -3.46989 | 38.83176 | 23977 ft | 405 kts | 316° |
| 2026-04-26 10:53 | -3.45020 | 38.81140 | 23975 ft | 406 kts | 316° |
| 2026-04-26 10:53 | -3.43056 | 38.79113 | 23968 ft | 405 kts | 316° |
| 2026-04-26 10:53 | -3.41103 | 38.77093 | 23970 ft | 406 kts | 316° |
| 2026-04-26 10:54 | -3.37181 | 38.73043 | 23981 ft | 405 kts | 316° |
| 2026-04-26 10:54 | -3.35218 | 38.71013 | 23974 ft | 405 kts | 316° |
| 2026-04-26 10:54 | -3.33288 | 38.69021 | 23983 ft | 404 kts | 316° |
| 2026-04-26 10:54 | -3.31310 | 38.66978 | 23992 ft | 404 kts | 316° |
| 2026-04-26 10:55 | -3.29376 | 38.64979 | 23988 ft | 404 kts | 316° |
| 2026-04-26 10:55 | -3.27418 | 38.62959 | 23980 ft | 404 kts | 316° |
| 2026-04-26 10:55 | -3.25475 | 38.60952 | 23989 ft | 403 kts | 316° |
| 2026-04-26 10:55 | -3.24194 | 38.59631 | 24002 ft | 404 kts | 316° |
| 2026-04-26 10:56 | -3.21551 | 38.56899 | 24028 ft | 404 kts | 316° |
| 2026-04-26 10:56 | -3.19604 | 38.54890 | 24013 ft | 403 kts | 316° |
| 2026-04-26 10:56 | -3.17683 | 38.52908 | 23997 ft | 403 kts | 316° |
| 2026-04-26 10:56 | -3.15707 | 38.50867 | 23985 ft | 403 kts | 316° |
| 2026-04-26 10:57 | -3.13762 | 38.48859 | 23992 ft | 402 kts | 316° |
| 2026-04-26 10:57 | -3.11830 | 38.46864 | 24005 ft | 402 kts | 316° |
| 2026-04-26 10:57 | -3.09882 | 38.44854 | 23998 ft | 402 kts | 316° |
| 2026-04-26 10:57 | -3.07935 | 38.42844 | 23991 ft | 402 kts | 316° |
| 2026-04-26 10:58 | -3.05995 | 38.40842 | 24001 ft | 402 kts | 316° |
| 2026-04-26 10:58 | -3.04053 | 38.38838 | 24012 ft | 402 kts | 316° |
| 2026-04-26 10:58 | -3.02105 | 38.36827 | 24002 ft | 402 kts | 316° |
| 2026-04-26 10:58 | -3.00159 | 38.34820 | 23998 ft | 402 kts | 316° |
| 2026-04-26 10:59 | -2.98228 | 38.32827 | 24015 ft | 402 kts | 316° |
| 2026-04-26 10:59 | -2.96288 | 38.30826 | 24018 ft | 402 kts | 316° |
| 2026-04-26 10:59 | -2.94322 | 38.28797 | 24005 ft | 402 kts | 316° |
| 2026-04-26 10:59 | -2.92395 | 38.26808 | 24010 ft | 402 kts | 316° |
| 2026-04-26 11:00 | -2.90449 | 38.24802 | 24019 ft | 402 kts | 316° |
| 2026-04-26 11:00 | -2.88508 | 38.22799 | 24024 ft | 402 kts | 316° |
| 2026-04-26 11:00 | -2.86565 | 38.20795 | 24022 ft | 402 kts | 316° |
| 2026-04-26 11:00 | -2.84633 | 38.18802 | 24018 ft | 402 kts | 316° |
| 2026-04-26 11:01 | -2.82663 | 38.16771 | 24033 ft | 407 kts | 316° |
| 2026-04-26 11:01 | -2.80689 | 38.14736 | 24050 ft | 418 kts | 316° |
| 2026-04-26 11:01 | -2.78612 | 38.12594 | 24055 ft | 429 kts | 316° |
| 2026-04-26 11:01 | -2.76534 | 38.10450 | 24056 ft | 439 kts | 316° |
| 2026-04-26 11:02 | -2.74381 | 38.08229 | 24059 ft | 448 kts | 316° |
| 2026-04-26 11:02 | -2.72195 | 38.05975 | 24054 ft | 456 kts | 316° |
| 2026-04-26 11:02 | -2.69970 | 38.03681 | 24060 ft | 463 kts | 316° |
| 2026-04-26 11:02 | -2.67718 | 38.01358 | 24061 ft | 470 kts | 316° |
| 2026-04-26 11:03 | -2.65426 | 37.98995 | 24059 ft | 472 kts | 316° |
| 2026-04-26 11:03 | -2.63144 | 37.96643 | 24052 ft | 471 kts | 316° |
| 2026-04-26 11:03 | -2.60855 | 37.94284 | 24049 ft | 471 kts | 316° |
| 2026-04-26 11:03 | -2.58591 | 37.91949 | 24058 ft | 471 kts | 316° |
| 2026-04-26 11:04 | -2.56309 | 37.89599 | 24058 ft | 471 kts | 316° |
| 2026-04-26 11:04 | -2.54056 | 37.87275 | 24051 ft | 471 kts | 316° |
| 2026-04-26 11:04 | -2.51772 | 37.84922 | 24056 ft | 470 kts | 316° |
| 2026-04-26 11:04 | -2.49488 | 37.82569 | 24064 ft | 471 kts | 316° |
| 2026-04-26 11:05 | -2.47214 | 37.80226 | 24062 ft | 471 kts | 316° |
| 2026-04-26 11:05 | -2.44947 | 37.77889 | 24055 ft | 470 kts | 316° |
| 2026-04-26 11:05 | -2.42688 | 37.75561 | 24060 ft | 471 kts | 316° |
| 2026-04-26 11:05 | -2.40404 | 37.73208 | 24068 ft | 470 kts | 316° |
| 2026-04-26 11:06 | -2.38143 | 37.70879 | 24065 ft | 471 kts | 316° |
| 2026-04-26 11:06 | -2.36621 | 37.69310 | 24064 ft | 470 kts | 316° |
| 2026-04-26 11:06 | -2.33579 | 37.66177 | 24067 ft | 471 kts | 316° |
| 2026-04-26 11:06 | -2.31300 | 37.63830 | 24085 ft | 471 kts | 316° |
| 2026-04-26 11:07 | -2.29020 | 37.61479 | 24082 ft | 471 kts | 315° |
| 2026-04-26 11:07 | -2.26734 | 37.59127 | 24069 ft | 471 kts | 315° |
| 2026-04-26 11:07 | -2.24451 | 37.56773 | 24072 ft | 471 kts | 315° |
| 2026-04-26 11:07 | -2.22174 | 37.54431 | 24083 ft | 471 kts | 315° |
| 2026-04-26 11:08 | -2.19911 | 37.52098 | 24089 ft | 471 kts | 315° |
| 2026-04-26 11:08 | -2.17635 | 37.49754 | 24087 ft | 471 kts | 315° |
| 2026-04-26 11:08 | -2.15346 | 37.47399 | 24091 ft | 471 kts | 315° |
| 2026-04-26 11:08 | -2.13066 | 37.45053 | 24103 ft | 471 kts | 316° |
| 2026-04-26 11:09 | -2.10756 | 37.42745 | 24102 ft | 471 kts | 316° |
| 2026-04-26 11:09 | -2.08447 | 37.40416 | 24043 ft | 469 kts | 316° |
| 2026-04-26 11:09 | -2.06188 | 37.38125 | 23437 ft | 456 kts | 316° |
| 2026-04-26 11:09 | -2.03987 | 37.35885 | 22725 ft | 444 kts | 316° |
| 2026-04-26 11:10 | -2.01887 | 37.33741 | 22062 ft | 433 kts | 316° |
| 2026-04-26 11:10 | -1.99804 | 37.31614 | 21430 ft | 423 kts | 316° |
| 2026-04-26 11:10 | -1.97780 | 37.29550 | 20824 ft | 413 kts | 316° |
| 2026-04-26 11:10 | -1.95793 | 37.27525 | 20365 ft | 403 kts | 316° |
| 2026-04-26 11:11 | -1.93806 | 37.25501 | 20242 ft | 407 kts | 316° |
| 2026-04-26 11:11 | -1.91823 | 37.23482 | 19890 ft | 403 kts | 316° |
| 2026-04-26 11:11 | -1.89868 | 37.21495 | 19150 ft | 400 kts | 316° |
| 2026-04-26 11:11 | -1.87929 | 37.19528 | 18486 ft | 396 kts | 316° |
| 2026-04-26 11:12 | -1.86030 | 37.17599 | 17753 ft | 391 kts | 316° |
| 2026-04-26 11:12 | -1.84109 | 37.15652 | 17024 ft | 386 kts | 316° |
| 2026-04-26 11:12 | -1.82250 | 37.13773 | 16335 ft | 382 kts | 316° |
| 2026-04-26 11:12 | -1.80428 | 37.11931 | 15656 ft | 377 kts | 316° |
| 2026-04-26 11:13 | -1.78617 | 37.10103 | 15002 ft | 373 kts | 316° |
| 2026-04-26 11:13 | -1.76797 | 37.08270 | 14329 ft | 369 kts | 316° |
| 2026-04-26 11:13 | -1.75000 | 37.06459 | 13647 ft | 366 kts | 315° |
| 2026-04-26 11:13 | -1.73209 | 37.04658 | 12926 ft | 362 kts | 316° |
| 2026-04-26 11:14 | -1.71446 | 37.02897 | 12235 ft | 359 kts | 316° |
| 2026-04-26 11:14 | -1.69679 | 37.01142 | 11555 ft | 355 kts | 316° |
| 2026-04-26 11:14 | -1.67957 | 36.99436 | 10890 ft | 352 kts | 316° |
| 2026-04-26 11:14 | -1.66791 | 36.98282 | 10548 ft | 348 kts | 316° |
| 2026-04-26 11:15 | -1.64705 | 36.96228 | 10289 ft | 340 kts | 316° |
| 2026-04-26 11:15 | -1.63051 | 36.94603 | 10211 ft | 323 kts | 316° |
| 2026-04-26 11:15 | -1.61494 | 36.93073 | 10167 ft | 307 kts | 316° |
| 2026-04-26 11:15 | -1.59990 | 36.91596 | 10027 ft | 301 kts | 316° |
| 2026-04-26 11:16 | -1.58498 | 36.90131 | 9719 ft | 300 kts | 316° |
| 2026-04-26 11:16 | -1.57015 | 36.88678 | 9385 ft | 299 kts | 316° |
| 2026-04-26 11:16 | -1.55531 | 36.87224 | 9055 ft | 297 kts | 316° |
| 2026-04-26 11:16 | -1.54056 | 36.85779 | 8700 ft | 296 kts | 316° |
| 2026-04-26 11:17 | -1.52593 | 36.84353 | 8330 ft | 296 kts | 316° |
| 2026-04-26 11:17 | -1.51119 | 36.82912 | 8003 ft | 294 kts | 316° |
| 2026-04-26 11:17 | -1.49681 | 36.81507 | 7669 ft | 293 kts | 316° |
| 2026-04-26 11:17 | -1.48220 | 36.80084 | 7571 ft | 292 kts | 317° |
| 2026-04-26 11:18 | -1.46775 | 36.78667 | 7529 ft | 291 kts | 316° |
| 2026-04-26 11:18 | -1.45183 | 36.77425 | 7479 ft | 289 kts | 335° |
| 2026-04-26 11:18 | -1.43258 | 36.77008 | 7480 ft | 288 kts | 5° |
| 2026-04-26 11:18 | -1.41947 | 36.77275 | 7501 ft | 283 kts | 23° |